sensor_id;sensor_type;location;lat;lon;timestamp;pressure;altitude;pressure_sealevel;temperature;humidity
68986;BME280;56035;37.534;-122.308;2023-05-23T00:01:44;100869.25;;;18.21;100.00
68986;BME280;56035;37.534;-122.308;2023-05-23T00:04:10;100874.06;;;18.11;100.00
68986;BME280;56035;37.534;-122.308;2023-05-23T00:06:41;100867.16;;;18.03;100.00
68986;BME280;56035;37.534;-122.308;2023-05-23T00:09:14;100863.38;;;17.84;100.00
68986;BME280;56035;37.534;-122.308;2023-05-23T00:11:40;100869.56;;;17.65;100.00
68986;BME280;56035;37.534;-122.308;2023-05-23T00:14:13;100872.72;;;17.53;100.00
68986;BME280;56035;37.534;-122.308;2023-05-23T00:16:39;100875.28;;;17.40;100.00
68986;BME280;56035;37.534;-122.308;2023-05-23T00:19:05;100867.81;;;17.25;100.00
68986;BME280;56035;37.534;-122.308;2023-05-23T00:21:32;100877.03;;;17.10;100.00
68986;BME280;56035;37.534;-122.308;2023-05-23T00:23:58;100877.63;;;17.02;100.00
68986;BME280;56035;37.534;-122.308;2023-05-23T00:26:24;100872.91;;;16.92;100.00
68986;BME280;56035;37.534;-122.308;2023-05-23T00:28:49;100864.28;;;16.94;100.00
68986;BME280;56035;37.534;-122.308;2023-05-23T00:31:15;100881.28;;;16.82;100.00
68986;BME280;56035;37.534;-122.308;2023-05-23T00:33:41;100888.78;;;16.66;100.00
68986;BME280;56035;37.534;-122.308;2023-05-23T00:36:07;100891.31;;;16.52;100.00
68986;BME280;56035;37.534;-122.308;2023-05-23T00:38:33;100885.19;;;16.35;100.00
68986;BME280;56035;37.534;-122.308;2023-05-23T00:41:00;100880.19;;;16.32;100.00
68986;BME280;56035;37.534;-122.308;2023-05-23T00:43:26;100888.53;;;16.27;100.00
68986;BME280;56035;37.534;-122.308;2023-05-23T00:45:51;100882.97;;;16.27;100.00
68986;BME280;56035;37.534;-122.308;2023-05-23T00:48:17;100885.72;;;16.22;100.00
68986;BME280;56035;37.534;-122.308;2023-05-23T00:50:43;100877.97;;;16.19;100.00
68986;BME280;56035;37.534;-122.308;2023-05-23T00:53:10;100872.13;;;16.20;100.00
68986;BME280;56035;37.534;-122.308;2023-05-23T00:55:36;100877.09;;;16.18;100.00
68986;BME280;56035;37.534;-122.308;2023-05-23T00:58:03;100862.41;;;16.12;100.00
68986;BME280;56035;37.534;-122.308;2023-05-23T01:00:29;100868.22;;;16.06;100.00
68986;BME280;56035;37.534;-122.308;2023-05-23T01:02:58;100870.72;;;16.07;100.00
68986;BME280;56035;37.534;-122.308;2023-05-23T01:05:25;100874.03;;;16.04;100.00
68986;BME280;56035;37.534;-122.308;2023-05-23T01:07:51;100880.16;;;16.01;100.00
68986;BME280;56035;37.534;-122.308;2023-05-23T01:10:24;100870.13;;;15.95;100.00
68986;BME280;56035;37.534;-122.308;2023-05-23T01:15:44;100881.22;;;15.70;100.00
68986;BME280;56035;37.534;-122.308;2023-05-23T01:18:23;100880.03;;;15.60;100.00
68986;BME280;56035;37.534;-122.308;2023-05-23T01:20:56;100882.25;;;15.53;100.00
68986;BME280;56035;37.534;-122.308;2023-05-23T01:28:51;100893.72;;;15.14;100.00
68986;BME280;56035;37.534;-122.308;2023-05-23T01:31:19;100893.19;;;15.17;100.00
68986;BME280;56035;37.534;-122.308;2023-05-23T01:33:46;100896.97;;;15.01;100.00
68986;BME280;56035;37.534;-122.308;2023-05-23T01:36:14;100886.91;;;14.90;100.00
68986;BME280;56035;37.534;-122.308;2023-05-23T01:38:40;100897.09;;;14.79;100.00
68986;BME280;56035;37.534;-122.308;2023-05-23T01:41:07;100891.97;;;14.61;100.00
68986;BME280;56035;37.534;-122.308;2023-05-23T01:43:33;100898.75;;;14.48;100.00
68986;BME280;56035;37.534;-122.308;2023-05-23T01:45:58;100897.03;;;14.37;100.00
68986;BME280;56035;37.534;-122.308;2023-05-23T01:48:25;100892.25;;;14.32;100.00
68986;BME280;56035;37.534;-122.308;2023-05-23T01:50:52;100900.22;;;14.23;100.00
68986;BME280;56035;37.534;-122.308;2023-05-23T01:53:19;100892.44;;;14.20;100.00
68986;BME280;56035;37.534;-122.308;2023-05-23T01:55:45;100895.69;;;14.12;100.00
68986;BME280;56035;37.534;-122.308;2023-05-23T01:58:11;100896.41;;;14.02;100.00
68986;BME280;56035;37.534;-122.308;2023-05-23T02:00:37;100897.72;;;13.95;100.00
68986;BME280;56035;37.534;-122.308;2023-05-23T02:03:03;100901.53;;;13.89;100.00
68986;BME280;56035;37.534;-122.308;2023-05-23T02:05:30;100906.38;;;13.76;100.00
68986;BME280;56035;37.534;-122.308;2023-05-23T02:07:56;100900.31;;;13.52;100.00
68986;BME280;56035;37.534;-122.308;2023-05-23T02:10:21;100900.47;;;13.41;100.00
68986;BME280;56035;37.534;-122.308;2023-05-23T02:12:47;100890.66;;;13.33;100.00
68986;BME280;56035;37.534;-122.308;2023-05-23T02:15:13;100888.56;;;13.23;100.00
68986;BME280;56035;37.534;-122.308;2023-05-23T02:17:39;100905.16;;;13.23;100.00
68986;BME280;56035;37.534;-122.308;2023-05-23T02:20:06;100903.41;;;13.17;100.00
68986;BME280;56035;37.534;-122.308;2023-05-23T02:22:32;100912.81;;;13.16;100.00
68986;BME280;56035;37.534;-122.308;2023-05-23T02:24:58;100916.91;;;13.13;100.00
68986;BME280;56035;37.534;-122.308;2023-05-23T02:27:23;100914.09;;;13.08;100.00
68986;BME280;56035;37.534;-122.308;2023-05-23T02:29:49;100906.56;;;13.04;100.00
68986;BME280;56035;37.534;-122.308;2023-05-23T02:32:15;100914.53;;;13.00;100.00
68986;BME280;56035;37.534;-122.308;2023-05-23T02:34:41;100909.69;;;12.91;100.00
68986;BME280;56035;37.534;-122.308;2023-05-23T02:37:12;100907.28;;;12.77;100.00
68986;BME280;56035;37.534;-122.308;2023-05-23T02:39:38;100911.03;;;12.71;100.00
68986;BME280;56035;37.534;-122.308;2023-05-23T02:42:03;100910.31;;;12.59;100.00
68986;BME280;56035;37.534;-122.308;2023-05-23T02:44:29;100919.00;;;12.51;100.00
68986;BME280;56035;37.534;-122.308;2023-05-23T02:46:55;100903.53;;;12.50;100.00
68986;BME280;56035;37.534;-122.308;2023-05-23T02:49:21;100915.59;;;12.44;100.00
68986;BME280;56035;37.534;-122.308;2023-05-23T02:51:47;100922.09;;;12.37;100.00
68986;BME280;56035;37.534;-122.308;2023-05-23T02:54:13;100921.94;;;12.27;100.00
68986;BME280;56035;37.534;-122.308;2023-05-23T02:56:38;100922.09;;;12.21;100.00
68986;BME280;56035;37.534;-122.308;2023-05-23T02:59:04;100932.31;;;12.20;100.00
68986;BME280;56035;37.534;-122.308;2023-05-23T03:01:30;100922.25;;;12.14;100.00
68986;BME280;56035;37.534;-122.308;2023-05-23T03:03:56;100922.16;;;12.09;100.00
68986;BME280;56035;37.534;-122.308;2023-05-23T03:06:22;100923.75;;;12.05;100.00
68986;BME280;56035;37.534;-122.308;2023-05-23T03:08:48;100931.09;;;11.99;100.00
68986;BME280;56035;37.534;-122.308;2023-05-23T03:11:13;100919.63;;;11.90;100.00
68986;BME280;56035;37.534;-122.308;2023-05-23T03:13:40;100925.03;;;11.85;100.00
68986;BME280;56035;37.534;-122.308;2023-05-23T03:16:06;100911.69;;;11.82;100.00
68986;BME280;56035;37.534;-122.308;2023-05-23T03:18:32;100921.22;;;11.75;100.00
68986;BME280;56035;37.534;-122.308;2023-05-23T03:20:58;100920.59;;;11.72;100.00
68986;BME280;56035;37.534;-122.308;2023-05-23T03:26:08;100919.56;;;11.62;100.00
68986;BME280;56035;37.534;-122.308;2023-05-23T03:28:34;100909.84;;;11.59;100.00
68986;BME280;56035;37.534;-122.308;2023-05-23T03:30:59;100924.97;;;11.57;100.00
68986;BME280;56035;37.534;-122.308;2023-05-23T03:33:25;100925.47;;;11.54;100.00
68986;BME280;56035;37.534;-122.308;2023-05-23T03:35:51;100922.63;;;11.48;100.00
68986;BME280;56035;37.534;-122.308;2023-05-23T03:38:17;100932.47;;;11.44;100.00
68986;BME280;56035;37.534;-122.308;2023-05-23T03:40:43;100936.78;;;11.40;100.00
68986;BME280;56035;37.534;-122.308;2023-05-23T03:43:09;100929.59;;;11.39;100.00
68986;BME280;56035;37.534;-122.308;2023-05-23T03:45:36;100931.16;;;11.35;100.00
68986;BME280;56035;37.534;-122.308;2023-05-23T03:48:02;100928.28;;;11.30;100.00
68986;BME280;56035;37.534;-122.308;2023-05-23T03:50:28;100917.75;;;11.27;100.00
68986;BME280;56035;37.534;-122.308;2023-05-23T03:52:53;100917.75;;;11.27;100.00
68986;BME280;56035;37.534;-122.308;2023-05-23T03:55:20;100911.66;;;11.25;100.00
68986;BME280;56035;37.534;-122.308;2023-05-23T03:57:50;100917.16;;;11.25;100.00
68986;BME280;56035;37.534;-122.308;2023-05-23T04:00:16;100924.22;;;11.21;100.00
68986;BME280;56035;37.534;-122.308;2023-05-23T04:02:43;100918.34;;;11.17;100.00
68986;BME280;56035;37.534;-122.308;2023-05-23T04:05:10;100915.84;;;11.16;100.00
68986;BME280;56035;37.534;-122.308;2023-05-23T04:07:36;100914.16;;;11.15;100.00
68986;BME280;56035;37.534;-122.308;2023-05-23T04:10:02;100909.16;;;11.12;100.00
68986;BME280;56035;37.534;-122.308;2023-05-23T04:12:28;100897.50;;;11.10;100.00
68986;BME280;56035;37.534;-122.308;2023-05-23T04:14:57;100904.13;;;11.09;100.00
68986;BME280;56035;37.534;-122.308;2023-05-23T04:17:23;100911.31;;;11.10;100.00
68986;BME280;56035;37.534;-122.308;2023-05-23T04:19:52;100916.47;;;11.06;100.00
68986;BME280;56035;37.534;-122.308;2023-05-23T04:22:18;100912.25;;;11.04;100.00
68986;BME280;56035;37.534;-122.308;2023-05-23T04:24:44;100898.97;;;11.00;100.00
68986;BME280;56035;37.534;-122.308;2023-05-23T04:27:10;100912.75;;;11.00;100.00
68986;BME280;56035;37.534;-122.308;2023-05-23T04:29:36;100899.69;;;10.96;100.00
68986;BME280;56035;37.534;-122.308;2023-05-23T04:32:02;100914.53;;;10.95;100.00
68986;BME280;56035;37.534;-122.308;2023-05-23T04:34:30;100907.63;;;10.92;100.00
68986;BME280;56035;37.534;-122.308;2023-05-23T04:36:58;100917.78;;;10.92;100.00
68986;BME280;56035;37.534;-122.308;2023-05-23T04:39:26;100920.53;;;10.92;100.00
68986;BME280;56035;37.534;-122.308;2023-05-23T04:41:52;100918.50;;;10.87;100.00
68986;BME280;56035;37.534;-122.308;2023-05-23T04:44:18;100939.72;;;10.87;100.00
68986;BME280;56035;37.534;-122.308;2023-05-23T04:46:44;100938.28;;;10.84;100.00
68986;BME280;56035;37.534;-122.308;2023-05-23T04:49:10;100933.84;;;10.83;100.00
68986;BME280;56035;37.534;-122.308;2023-05-23T04:51:37;100939.00;;;10.80;100.00
68986;BME280;56035;37.534;-122.308;2023-05-23T04:54:03;100937.31;;;10.78;100.00
68986;BME280;56035;37.534;-122.308;2023-05-23T04:56:29;100939.22;;;10.78;100.00
68986;BME280;56035;37.534;-122.308;2023-05-23T04:58:56;100945.22;;;10.75;100.00
68986;BME280;56035;37.534;-122.308;2023-05-23T05:01:22;100941.88;;;10.73;100.00
68986;BME280;56035;37.534;-122.308;2023-05-23T05:03:52;100942.72;;;10.73;100.00
68986;BME280;56035;37.534;-122.308;2023-05-23T05:06:18;100940.44;;;10.70;100.00
68986;BME280;56035;37.534;-122.308;2023-05-23T05:08:45;100943.41;;;10.69;100.00
68986;BME280;56035;37.534;-122.308;2023-05-23T05:11:11;100943.66;;;10.67;100.00
68986;BME280;56035;37.534;-122.308;2023-05-23T05:13:37;100935.41;;;10.67;100.00
68986;BME280;56035;37.534;-122.308;2023-05-23T05:16:03;100931.69;;;10.62;100.00
68986;BME280;56035;37.534;-122.308;2023-05-23T05:18:29;100942.69;;;10.62;100.00
68986;BME280;56035;37.534;-122.308;2023-05-23T05:20:55;100943.16;;;10.59;100.00
68986;BME280;56035;37.534;-122.308;2023-05-23T05:23:23;100936.22;;;10.56;100.00
68986;BME280;56035;37.534;-122.308;2023-05-23T05:25:49;100932.63;;;10.55;100.00
68986;BME280;56035;37.534;-122.308;2023-05-23T05:28:15;100934.31;;;10.57;100.00
68986;BME280;56035;37.534;-122.308;2023-05-23T05:30:41;100922.69;;;10.54;100.00
68986;BME280;56035;37.534;-122.308;2023-05-23T05:33:07;100944.72;;;10.54;100.00
68986;BME280;56035;37.534;-122.308;2023-05-23T05:35:36;100940.31;;;10.53;100.00
68986;BME280;56035;37.534;-122.308;2023-05-23T05:38:05;100943.53;;;10.50;100.00
68986;BME280;56035;37.534;-122.308;2023-05-23T05:40:32;100934.66;;;10.48;100.00
68986;BME280;56035;37.534;-122.308;2023-05-23T05:42:58;100942.91;;;10.48;100.00
68986;BME280;56035;37.534;-122.308;2023-05-23T05:45:24;100941.72;;;10.44;100.00
68986;BME280;56035;37.534;-122.308;2023-05-23T05:47:50;100948.06;;;10.45;100.00
68986;BME280;56035;37.534;-122.308;2023-05-23T05:50:16;100947.09;;;10.39;100.00
68986;BME280;56035;37.534;-122.308;2023-05-23T05:52:44;100939.31;;;10.36;100.00
68986;BME280;56035;37.534;-122.308;2023-05-23T05:55:10;100945.41;;;10.38;100.00
68986;BME280;56035;37.534;-122.308;2023-05-23T05:57:40;100945.28;;;10.33;100.00
68986;BME280;56035;37.534;-122.308;2023-05-23T06:02:37;100947.91;;;10.28;100.00
68986;BME280;56035;37.534;-122.308;2023-05-23T06:05:03;100942.63;;;10.26;100.00
68986;BME280;56035;37.534;-122.308;2023-05-23T06:07:30;100957.25;;;10.27;100.00
68986;BME280;56035;37.534;-122.308;2023-05-23T06:09:56;100960.09;;;10.20;100.00
68986;BME280;56035;37.534;-122.308;2023-05-23T06:12:22;100959.09;;;10.15;100.00
68986;BME280;56035;37.534;-122.308;2023-05-23T06:14:48;100956.56;;;10.13;100.00
68986;BME280;56035;37.534;-122.308;2023-05-23T06:17:13;100955.97;;;10.11;100.00
68986;BME280;56035;37.534;-122.308;2023-05-23T06:19:39;100953.22;;;10.11;100.00
68986;BME280;56035;37.534;-122.308;2023-05-23T06:22:05;100951.94;;;10.14;100.00
68986;BME280;56035;37.534;-122.308;2023-05-23T06:24:31;100950.22;;;10.13;100.00
68986;BME280;56035;37.534;-122.308;2023-05-23T06:26:57;100941.38;;;10.11;100.00
68986;BME280;56035;37.534;-122.308;2023-05-23T06:29:23;100947.34;;;10.07;100.00
68986;BME280;56035;37.534;-122.308;2023-05-23T06:31:48;100937.75;;;10.10;100.00
68986;BME280;56035;37.534;-122.308;2023-05-23T06:34:15;100938.22;;;10.07;100.00
68986;BME280;56035;37.534;-122.308;2023-05-23T06:36:41;100937.19;;;10.08;100.00
68986;BME280;56035;37.534;-122.308;2023-05-23T06:39:07;100938.63;;;10.11;100.00
68986;BME280;56035;37.534;-122.308;2023-05-23T06:41:34;100936.56;;;10.06;100.00
68986;BME280;56035;37.534;-122.308;2023-05-23T06:44:00;100948.66;;;10.05;100.00
68986;BME280;56035;37.534;-122.308;2023-05-23T06:46:26;100954.38;;;10.03;100.00
68986;BME280;56035;37.534;-122.308;2023-05-23T06:48:52;100950.78;;;10.03;100.00
68986;BME280;56035;37.534;-122.308;2023-05-23T06:51:17;100947.19;;;10.02;100.00
68986;BME280;56035;37.534;-122.308;2023-05-23T06:53:43;100948.28;;;10.01;100.00
68986;BME280;56035;37.534;-122.308;2023-05-23T06:56:09;100943.25;;;9.98;100.00
68986;BME280;56035;37.534;-122.308;2023-05-23T06:58:35;100936.91;;;9.98;100.00
68986;BME280;56035;37.534;-122.308;2023-05-23T07:01:01;100947.91;;;9.98;100.00
68986;BME280;56035;37.534;-122.308;2023-05-23T07:03:26;100945.00;;;9.93;100.00
68986;BME280;56035;37.534;-122.308;2023-05-23T07:05:52;100953.06;;;9.94;100.00
68986;BME280;56035;37.534;-122.308;2023-05-23T07:08:18;100951.59;;;9.92;100.00
68986;BME280;56035;37.534;-122.308;2023-05-23T07:10:44;100954.34;;;9.92;100.00
68986;BME280;56035;37.534;-122.308;2023-05-23T07:13:10;100960.44;;;9.94;100.00
68986;BME280;56035;37.534;-122.308;2023-05-23T07:15:35;100959.84;;;9.92;100.00
68986;BME280;56035;37.534;-122.308;2023-05-23T07:18:01;100955.19;;;9.92;100.00
68986;BME280;56035;37.534;-122.308;2023-05-23T07:20:28;100951.34;;;9.93;100.00
68986;BME280;56035;37.534;-122.308;2023-05-23T07:22:54;100945.25;;;9.91;100.00
68986;BME280;56035;37.534;-122.308;2023-05-23T07:25:19;100949.69;;;9.92;100.00
68986;BME280;56035;37.534;-122.308;2023-05-23T07:27:47;100950.75;;;9.91;100.00
68986;BME280;56035;37.534;-122.308;2023-05-23T07:30:13;100953.81;;;9.83;100.00
68986;BME280;56035;37.534;-122.308;2023-05-23T07:32:40;100947.72;;;9.81;100.00
68986;BME280;56035;37.534;-122.308;2023-05-23T07:35:06;100952.63;;;9.79;100.00
68986;BME280;56035;37.534;-122.308;2023-05-23T07:37:32;100945.19;;;9.79;100.00
68986;BME280;56035;37.534;-122.308;2023-05-23T07:39:58;100952.47;;;9.74;100.00
68986;BME280;56035;37.534;-122.308;2023-05-23T07:42:24;100948.03;;;9.73;100.00
68986;BME280;56035;37.534;-122.308;2023-05-23T07:44:49;100954.16;;;9.75;100.00
68986;BME280;56035;37.534;-122.308;2023-05-23T07:47:15;100949.13;;;9.72;100.00
68986;BME280;56035;37.534;-122.308;2023-05-23T07:49:41;100945.66;;;9.76;100.00
68986;BME280;56035;37.534;-122.308;2023-05-23T07:52:07;100942.69;;;9.78;100.00
68986;BME280;56035;37.534;-122.308;2023-05-23T07:54:33;100952.16;;;9.82;100.00
68986;BME280;56035;37.534;-122.308;2023-05-23T07:56:58;100943.53;;;9.78;100.00
68986;BME280;56035;37.534;-122.308;2023-05-23T07:59:24;100955.84;;;9.76;100.00
68986;BME280;56035;37.534;-122.308;2023-05-23T08:01:51;100951.78;;;9.78;100.00
68986;BME280;56035;37.534;-122.308;2023-05-23T08:04:17;100959.78;;;9.80;100.00
68986;BME280;56035;37.534;-122.308;2023-05-23T08:06:42;100954.28;;;9.80;100.00
68986;BME280;56035;37.534;-122.308;2023-05-23T08:09:11;100952.38;;;9.80;100.00
68986;BME280;56035;37.534;-122.308;2023-05-23T08:11:37;100956.91;;;9.75;100.00
68986;BME280;56035;37.534;-122.308;2023-05-23T08:14:03;100948.66;;;9.75;100.00
68986;BME280;56035;37.534;-122.308;2023-05-23T08:16:29;100951.53;;;9.80;100.00
68986;BME280;56035;37.534;-122.308;2023-05-23T08:18:54;100954.91;;;9.82;100.00
68986;BME280;56035;37.534;-122.308;2023-05-23T08:21:21;100945.91;;;9.75;100.00
68986;BME280;56035;37.534;-122.308;2023-05-23T08:23:47;100952.25;;;9.75;100.00
68986;BME280;56035;37.534;-122.308;2023-05-23T08:26:13;100946.03;;;9.80;100.00
68986;BME280;56035;37.534;-122.308;2023-05-23T08:28:39;100950.09;;;9.77;100.00
68986;BME280;56035;37.534;-122.308;2023-05-23T08:31:05;100950.94;;;9.78;100.00
68986;BME280;56035;37.534;-122.308;2023-05-23T08:33:31;100944.97;;;9.81;100.00
68986;BME280;56035;37.534;-122.308;2023-05-23T08:35:57;100935.84;;;9.80;100.00
68986;BME280;56035;37.534;-122.308;2023-05-23T08:38:23;100942.69;;;9.78;100.00
68986;BME280;56035;37.534;-122.308;2023-05-23T08:40:49;100934.66;;;9.76;100.00
68986;BME280;56035;37.534;-122.308;2023-05-23T08:43:18;100930.00;;;9.77;100.00
68986;BME280;56035;37.534;-122.308;2023-05-23T08:45:44;100935.28;;;9.78;100.00
68986;BME280;56035;37.534;-122.308;2023-05-23T08:48:11;100922.81;;;9.76;100.00
68986;BME280;56035;37.534;-122.308;2023-05-23T08:50:38;100938.69;;;9.74;100.00
68986;BME280;56035;37.534;-122.308;2023-05-23T08:53:04;100938.03;;;9.78;100.00
68986;BME280;56035;37.534;-122.308;2023-05-23T08:55:34;100933.81;;;9.76;100.00
68986;BME280;56035;37.534;-122.308;2023-05-23T08:58:02;100933.44;;;9.72;100.00
68986;BME280;56035;37.534;-122.308;2023-05-23T09:00:28;100929.53;;;9.80;100.00
68986;BME280;56035;37.534;-122.308;2023-05-23T09:02:54;100937.56;;;9.81;100.00
68986;BME280;56035;37.534;-122.308;2023-05-23T09:05:20;100923.19;;;9.79;100.00
68986;BME280;56035;37.534;-122.308;2023-05-23T09:07:46;100929.41;;;9.75;100.00
68986;BME280;56035;37.534;-122.308;2023-05-23T09:10:13;100933.19;;;9.74;100.00
68986;BME280;56035;37.534;-122.308;2023-05-23T09:12:41;100926.88;;;9.73;100.00
68986;BME280;56035;37.534;-122.308;2023-05-23T09:15:08;100929.88;;;9.72;100.00
68986;BME280;56035;37.534;-122.308;2023-05-23T09:17:35;100939.53;;;9.74;100.00
68986;BME280;56035;37.534;-122.308;2023-05-23T09:20:02;100929.63;;;9.73;100.00
68986;BME280;56035;37.534;-122.308;2023-05-23T09:22:31;100926.66;;;9.75;100.00
68986;BME280;56035;37.534;-122.308;2023-05-23T09:24:57;100929.16;;;9.76;100.00
68986;BME280;56035;37.534;-122.308;2023-05-23T09:27:22;100930.44;;;9.74;100.00
68986;BME280;56035;37.534;-122.308;2023-05-23T09:29:49;100929.41;;;9.75;100.00
68986;BME280;56035;37.534;-122.308;2023-05-23T09:32:15;100934.53;;;9.71;100.00
68986;BME280;56035;37.534;-122.308;2023-05-23T09:34:58;100934.75;;;9.70;100.00
68986;BME280;56035;37.534;-122.308;2023-05-23T09:37:28;100933.91;;;9.69;100.00
68986;BME280;56035;37.534;-122.308;2023-05-23T09:39:54;100938.56;;;9.69;100.00
68986;BME280;56035;37.534;-122.308;2023-05-23T09:42:20;100946.84;;;9.69;100.00
68986;BME280;56035;37.534;-122.308;2023-05-23T09:44:47;100941.53;;;9.67;100.00
68986;BME280;56035;37.534;-122.308;2023-05-23T09:47:16;100944.09;;;9.69;100.00
68986;BME280;56035;37.534;-122.308;2023-05-23T09:49:45;100944.44;;;9.72;100.00
68986;BME280;56035;37.534;-122.308;2023-05-23T09:52:11;100946.00;;;9.68;100.00
68986;BME280;56035;37.534;-122.308;2023-05-23T09:54:38;100944.66;;;9.71;100.00
68986;BME280;56035;37.534;-122.308;2023-05-23T09:57:05;100937.75;;;9.68;100.00
68986;BME280;56035;37.534;-122.308;2023-05-23T09:59:34;100945.38;;;9.66;100.00
68986;BME280;56035;37.534;-122.308;2023-05-23T10:02:03;100940.72;;;9.67;100.00
68986;BME280;56035;37.534;-122.308;2023-05-23T10:04:31;100937.75;;;9.68;100.00
68986;BME280;56035;37.534;-122.308;2023-05-23T10:07:17;100931.38;;;9.68;100.00
68986;BME280;56035;37.534;-122.308;2023-05-23T10:09:50;100931.63;;;9.66;100.00
68986;BME280;56035;37.534;-122.308;2023-05-23T10:13:01;100928.63;;;9.68;100.00
68986;BME280;56035;37.534;-122.308;2023-05-23T10:15:08;100932.63;;;9.72;100.00
68986;BME280;56035;37.534;-122.308;2023-05-23T10:20:38;100928.63;;;9.68;100.00
68986;BME280;56035;37.534;-122.308;2023-05-23T10:23:07;100928.63;;;9.68;100.00
68986;BME280;56035;37.534;-122.308;2023-05-23T10:25:33;100926.94;;;9.67;100.00
68986;BME280;56035;37.534;-122.308;2023-05-23T10:28:01;100931.53;;;9.73;100.00
68986;BME280;56035;37.534;-122.308;2023-05-23T10:30:27;100922.28;;;9.67;100.00
68986;BME280;56035;37.534;-122.308;2023-05-23T10:32:53;100934.00;;;9.63;100.00
68986;BME280;56035;37.534;-122.308;2023-05-23T10:35:31;100931.09;;;9.57;100.00
68986;BME280;56035;37.534;-122.308;2023-05-23T10:38:11;100937.22;;;9.59;100.00
68986;BME280;56035;37.534;-122.308;2023-05-23T10:46:12;100929.19;;;9.58;100.00
68986;BME280;56035;37.534;-122.308;2023-05-23T10:48:42;100927.03;;;9.60;100.00
68986;BME280;56035;37.534;-122.308;2023-05-23T10:51:11;100920.72;;;9.59;100.00
68986;BME280;56035;37.534;-122.308;2023-05-23T10:53:45;100916.28;;;9.58;100.00
68986;BME280;56035;37.534;-122.308;2023-05-23T10:56:20;100917.81;;;9.54;100.00
68986;BME280;56035;37.534;-122.308;2023-05-23T10:58:51;100926.06;;;9.54;100.00
68986;BME280;56035;37.534;-122.308;2023-05-23T11:01:16;100919.97;;;9.52;100.00
68986;BME280;56035;37.534;-122.308;2023-05-23T11:06:28;100926.28;;;9.53;100.00
68986;BME280;56035;37.534;-122.308;2023-05-23T11:09:05;100920.09;;;9.57;100.00
68986;BME280;56035;37.534;-122.308;2023-05-23T11:11:52;100921.78;;;9.58;100.00
68986;BME280;56035;37.534;-122.308;2023-05-23T11:14:17;100916.41;;;9.64;100.00
68986;BME280;56035;37.534;-122.308;2023-05-23T11:16:43;100922.38;;;9.60;100.00
68986;BME280;56035;37.534;-122.308;2023-05-23T11:21:48;100921.91;;;9.64;100.00
68986;BME280;56035;37.534;-122.308;2023-05-23T11:24:14;100926.38;;;9.65;100.00
68986;BME280;56035;37.534;-122.308;2023-05-23T11:26:51;100924.22;;;9.67;100.00
68986;BME280;56035;37.534;-122.308;2023-05-23T11:29:18;100924.44;;;9.65;100.00
68986;BME280;56035;37.534;-122.308;2023-05-23T11:31:44;100922.06;;;9.69;100.00
68986;BME280;56035;37.534;-122.308;2023-05-23T11:34:10;100917.88;;;9.66;100.00
68986;BME280;56035;37.534;-122.308;2023-05-23T11:36:36;100922.28;;;9.67;100.00
68986;BME280;56035;37.534;-122.308;2023-05-23T11:39:02;100915.13;;;9.66;100.00
68986;BME280;56035;37.534;-122.308;2023-05-23T11:41:31;100925.03;;;9.67;100.00
68986;BME280;56035;37.534;-122.308;2023-05-23T11:43:57;100922.28;;;9.67;100.00
68986;BME280;56035;37.534;-122.308;2023-05-23T11:46:26;100929.94;;;9.65;100.00
68986;BME280;56035;37.534;-122.308;2023-05-23T11:48:52;100924.66;;;9.64;100.00
68986;BME280;56035;37.534;-122.308;2023-05-23T11:51:17;100921.91;;;9.64;100.00
68986;BME280;56035;37.534;-122.308;2023-05-23T11:53:45;100926.94;;;9.67;100.00
68986;BME280;56035;37.534;-122.308;2023-05-23T11:56:13;100924.44;;;9.65;100.00
68986;BME280;56035;37.534;-122.308;2023-05-23T11:58:39;100924.56;;;9.70;100.00
68986;BME280;56035;37.534;-122.308;2023-05-23T12:01:06;100921.25;;;9.68;100.00
68986;BME280;56035;37.534;-122.308;2023-05-23T12:03:45;100923.28;;;9.73;100.00
68986;BME280;56035;37.534;-122.308;2023-05-23T12:06:17;100924.28;;;9.78;100.00
68986;BME280;56035;37.534;-122.308;2023-05-23T12:08:43;100924.84;;;9.80;100.00
68986;BME280;56035;37.534;-122.308;2023-05-23T12:11:09;100914.47;;;9.82;100.00
68986;BME280;56035;37.534;-122.308;2023-05-23T12:13:36;100924.84;;;9.80;100.00
68986;BME280;56035;37.534;-122.308;2023-05-23T12:16:02;100916.38;;;9.82;100.00
68986;BME280;56035;37.534;-122.308;2023-05-23T12:18:29;100919.13;;;9.82;100.00
68986;BME280;56035;37.534;-122.308;2023-05-23T12:20:59;100912.19;;;9.79;100.00
68986;BME280;56035;37.534;-122.308;2023-05-23T12:23:26;100925.09;;;9.79;100.00
68986;BME280;56035;37.534;-122.308;2023-05-23T12:25:52;100926.78;;;9.80;100.00
68986;BME280;56035;37.534;-122.308;2023-05-23T12:28:33;100919.34;;;9.80;100.00
68986;BME280;56035;37.534;-122.308;2023-05-23T12:31:04;100932.75;;;9.77;100.00
68986;BME280;56035;37.534;-122.308;2023-05-23T12:33:36;100931.44;;;9.79;100.00
68986;BME280;56035;37.534;-122.308;2023-05-23T12:36:02;100926.78;;;9.80;100.00
68986;BME280;56035;37.534;-122.308;2023-05-23T12:38:28;100926.19;;;9.78;100.00
68986;BME280;56035;37.534;-122.308;2023-05-23T12:41:09;100938.50;;;9.75;100.00
68986;BME280;56035;37.534;-122.308;2023-05-23T12:43:39;100928.78;;;9.73;100.00